Aeroporto :
LOGIN :

Iscrizione | Disclaimer

   EN    FR    IT 

 










Sommario :    VFR   VFR Marginale   IFR   IFR Intensivo   IFR Molto Intensivo
Visibilità : 
Base nubi : 
>= 8 km
>= 3000ft
5 / 8 km
1000 / 3000 ft
1500m / 5 km
500 / 1000 ft
800 / 1500m
200 / 500 ft
< 800m
< 200 ft
Simboli :   Temporali  Nebbia  Neve Forte  Precipitazioni Forti  Vento > 20 kt
SIGMETs :   Varie  Temporali  Ghiacco  Turbolenza  Onda orograficha  Ceneri Vulcaniche






- Altitudine del aeroporto : 135 ft
- Codice IATA : TLV


LLBG - Ben Gurion

ULTIMO METAR :
  • 011950Z VRB03KT CAVOK 22/14 Q1009 NOSIG

METARs OBSOLETI :
  • 011920Z 03004KT CAVOK 22/14 Q1009 NOSIG
  • 011850Z 02007KT CAVOK 22/14 Q1009 NOSIG
  • 011820Z 01008KT CAVOK 23/14 Q1009 NOSIG
  • 011750Z 36007KT 320V020 CAVOK 23/14 Q1010 NOSIG
  • 011720Z 35009KT CAVOK 23/13 Q1010 NOSIG
  • 011650Z 36008KT CAVOK 24/14 Q1010 NOSIG

TAF TAF LLBG
Valido dal 01 a 18 ore il 02 a 18 ore UTC


011718Z 0118/0218 35006KT CAVOK
FM011900 VRB03KT CAVOK
BECMG 0121/0123 13004KT
BECMG 0206/0208 25015KT
BECMG 0211/0213 30012KT 9999 SCT018
BECMG 0215/0217 33005KT TX31/0208Z TN21/0200Z
FIR LLLL / Asia



MetMap, La meteo Aeronautica in un colpo d'occhio ! - Copyright ORBIFLY Dicembre 2007 - Disclaimer

ORBIFLY MET'MAP TEAM :

Programmazione e sviluppo : Alexandra Zaïnal
Concezione : Baudouin d'Aumeries
Aiuto per la programmazione : Marc-Olivier Méhu
Supporto tecnico e logistico : Manuel Goepfert
Aiuto per la traduzione : Arnaldo La Scala

Contatto : metmap@orbifly.com




FONTI E CREDITI :

   NOAA